createdAt,value
2022-12-11T00:00:48.466Z,101170.69
2022-12-11T00:03:17.084Z,101126.84
2022-12-11T00:05:44.536Z,101182.09
2022-12-11T00:08:11.819Z,101183.09
2022-12-11T00:10:38.438Z,101175.78
2022-12-11T00:13:04.985Z,101178.34
2022-12-11T00:15:31.565Z,101111.31
2022-12-11T00:17:58.050Z,101111.44
2022-12-11T00:20:24.724Z,101095.91
2022-12-11T00:22:51.236Z,101154.63
2022-12-11T00:25:17.705Z,101170.03
2022-12-11T00:27:46.705Z,101198.09
2022-12-11T00:30:13.920Z,101166.38
2022-12-11T00:32:40.658Z,101156.34
2022-12-11T00:35:07.282Z,101190.72
2022-12-11T00:37:33.859Z,101174.47
2022-12-11T00:40:00.404Z,101184.44
2022-12-11T00:42:26.841Z,101172.63
2022-12-11T00:44:54.836Z,101145.94
2022-12-11T00:47:21.254Z,101193.69
2022-12-11T00:49:49.947Z,101117.19
2022-12-11T00:52:17.833Z,101186.00
2022-12-11T00:54:44.604Z,101183.28
2022-12-11T00:57:11.032Z,101098.81
2022-12-11T00:59:38.332Z,101165.09
2022-12-11T01:02:04.752Z,101139.22
2022-12-11T01:04:31.138Z,101125.75
2022-12-11T01:06:58.009Z,101099.75
2022-12-11T01:09:42.906Z,101142.09
2022-12-11T01:12:09.340Z,101145.00
2022-12-11T01:14:35.790Z,101150.16
2022-12-11T01:17:02.319Z,101152.91
2022-12-11T01:19:28.805Z,101164.69
2022-12-11T01:21:55.256Z,101160.56
2022-12-11T01:24:21.677Z,101172.88
2022-12-11T01:26:48.096Z,101158.94
2022-12-11T01:29:14.479Z,101143.53
2022-12-11T01:31:41.296Z,101137.03
2022-12-11T01:34:07.698Z,101143.72
2022-12-11T01:36:34.137Z,101114.19
2022-12-11T01:39:00.596Z,101088.91
2022-12-11T01:41:26.979Z,101151.25
2022-12-11T01:44:00.635Z,101167.84
2022-12-11T01:46:27.506Z,101153.88
2022-12-11T01:48:54.442Z,101158.75
2022-12-11T01:51:21.577Z,101105.16
2022-12-11T01:54:01.102Z,101150.97
2022-12-11T01:56:29.497Z,101161.13
2022-12-11T01:58:59.755Z,101169.00
2022-12-11T02:01:28.427Z,101173.84
2022-12-11T02:03:55.845Z,101175.06
2022-12-11T02:06:39.649Z,101168.13
2022-12-11T02:09:13.878Z,101127.16
2022-12-11T02:12:07.658Z,101162.59
2022-12-11T02:14:45.032Z,101135.28
2022-12-11T02:17:32.488Z,101127.59
2022-12-11T02:20:16.160Z,101162.53
2022-12-11T02:23:03.946Z,101160.28
2022-12-11T02:25:48.662Z,101156.34
2022-12-11T02:28:38.326Z,101156.44
2022-12-11T02:31:32.120Z,101148.41
2022-12-11T02:34:41.453Z,101127.53
2022-12-11T02:37:13.428Z,101135.81
2022-12-11T02:39:40.876Z,101143.81
2022-12-11T02:42:08.135Z,101120.00
2022-12-11T02:44:34.971Z,101138.63
2022-12-11T02:47:03.359Z,101107.38
2022-12-11T02:49:31.199Z,101126.84
2022-12-11T02:51:58.104Z,101108.19
2022-12-11T02:54:30.942Z,101101.84
2022-12-11T02:57:02.248Z,101116.50
2022-12-11T02:59:34.672Z,101136.16
2022-12-11T03:02:01.487Z,101105.97
2022-12-11T03:04:28.873Z,101142.34
2022-12-11T03:06:59.887Z,101130.44
2022-12-11T03:09:27.921Z,101060.00
2022-12-11T03:11:54.434Z,101143.34
2022-12-11T03:14:20.876Z,101079.44
2022-12-11T03:17:19.555Z,101133.09
2022-12-11T03:19:48.330Z,101146.75
2022-12-11T03:22:27.698Z,101133.31
2022-12-11T03:25:03.982Z,101131.16
2022-12-11T03:27:34.190Z,101146.63
2022-12-11T03:30:06.165Z,101148.28
2022-12-11T03:32:39.191Z,101131.06
2022-12-11T03:35:11.700Z,101139.78
2022-12-11T03:37:40.726Z,101117.34
2022-12-11T03:40:11.449Z,101118.88
2022-12-11T03:42:38.851Z,101142.09
2022-12-11T03:45:06.515Z,101148.25
2022-12-11T03:47:33.282Z,101132.91
2022-12-11T03:49:59.923Z,101136.34
2022-12-11T03:52:27.531Z,101134.50
2022-12-11T03:54:54.946Z,101131.94
2022-12-11T03:57:22.605Z,101136.34
2022-12-11T03:59:49.916Z,101065.44
2022-12-11T04:02:16.392Z,101116.47
2022-12-11T04:04:43.140Z,101132.28
2022-12-11T04:07:09.587Z,101116.13
2022-12-11T04:09:36.470Z,101122.97
2022-12-11T04:12:03.032Z,101059.16
2022-12-11T04:14:48.095Z,101087.44
2022-12-11T04:17:34.504Z,101108.00
2022-12-11T04:20:19.520Z,101048.22
2022-12-11T04:23:04.615Z,101097.97
2022-12-11T04:25:31.025Z,101109.88
2022-12-11T04:27:57.440Z,101086.50
2022-12-11T04:30:29.346Z,101119.84
2022-12-11T04:32:58.886Z,101104.06
2022-12-11T04:35:25.308Z,101097.88
2022-12-11T04:37:52.646Z,101111.84
2022-12-11T04:40:20.071Z,101122.50
2022-12-11T04:42:46.487Z,101116.44
2022-12-11T04:45:13.560Z,101115.53
2022-12-11T04:47:41.057Z,101091.34
2022-12-11T04:50:09.343Z,101113.16
2022-12-11T04:52:35.776Z,101085.63
2022-12-11T04:55:04.835Z,101087.38
2022-12-11T04:57:31.195Z,101055.09
2022-12-11T04:59:57.608Z,101059.41
2022-12-11T05:02:24.193Z,101073.53
2022-12-11T05:04:50.645Z,101102.81
2022-12-11T05:07:17.019Z,101092.78
2022-12-11T05:09:43.575Z,101037.81
2022-12-11T05:12:09.995Z,101091.16
2022-12-11T05:14:36.418Z,101090.31
2022-12-11T05:17:02.838Z,101114.81
2022-12-11T05:19:29.299Z,101092.06
2022-12-11T05:21:55.678Z,101074.66
2022-12-11T05:24:22.044Z,101063.59
2022-12-11T05:26:48.424Z,101100.25
2022-12-11T05:29:14.842Z,101089.22
2022-12-11T05:31:41.460Z,101092.47
2022-12-11T05:34:08.118Z,101088.97
2022-12-11T05:36:34.835Z,101046.59
2022-12-11T05:39:01.825Z,101107.31
2022-12-11T05:41:29.987Z,101108.56
2022-12-11T05:43:56.479Z,101096.28
2022-12-11T05:46:25.247Z,101093.91
2022-12-11T05:48:55.004Z,101034.81
2022-12-11T05:51:21.831Z,101100.66
2022-12-11T05:53:50.035Z,101093.00
2022-12-11T05:56:38.777Z,101068.50
2022-12-11T05:59:06.622Z,101066.94
2022-12-11T06:01:38.820Z,101053.31
2022-12-11T06:04:06.202Z,101048.09
2022-12-11T06:06:33.140Z,101088.66
2022-12-11T06:09:00.504Z,101074.31
2022-12-11T06:11:28.527Z,101092.38
2022-12-11T06:13:55.191Z,101092.47
2022-12-11T06:16:22.182Z,101065.03
2022-12-11T06:18:48.604Z,101061.75
2022-12-11T06:21:17.278Z,101032.66
2022-12-11T06:23:44.944Z,101084.25
2022-12-11T06:26:11.781Z,101084.16
2022-12-11T06:28:38.255Z,101058.56
2022-12-11T06:31:04.855Z,101074.94
2022-12-11T06:33:31.784Z,101074.31
2022-12-11T06:36:05.754Z,101088.16
2022-12-11T06:38:32.139Z,101078.41
2022-12-11T06:41:00.235Z,101091.41
2022-12-11T06:43:26.786Z,101064.38
2022-12-11T06:45:53.250Z,101049.13
2022-12-11T06:48:20.272Z,101064.06
2022-12-11T06:50:46.864Z,101088.66
2022-12-11T06:53:15.892Z,101107.47
2022-12-11T06:55:42.715Z,101078.47
2022-12-11T06:58:09.680Z,101055.34
2022-12-11T07:00:36.615Z,101081.41
2022-12-11T07:03:03.927Z,101050.06
2022-12-11T07:05:31.278Z,101112.66
2022-12-11T07:07:58.087Z,101111.56
2022-12-11T07:10:26.207Z,101013.19
2022-12-11T07:12:53.615Z,101093.69
2022-12-11T07:15:20.051Z,101078.81
2022-12-11T07:17:46.436Z,101085.72
2022-12-11T07:20:12.919Z,101110.28
2022-12-11T07:22:44.660Z,101081.09
2022-12-11T07:25:13.292Z,101079.97
2022-12-11T07:27:40.166Z,101101.28
2022-12-11T07:30:07.212Z,101080.59
2022-12-11T07:32:33.767Z,101085.53
2022-12-11T07:35:00.259Z,101082.03
2022-12-11T07:37:26.707Z,101085.34
2022-12-11T07:39:53.166Z,101057.25
2022-12-11T07:42:19.601Z,101055.72
2022-12-11T07:44:45.977Z,101099.25
2022-12-11T07:47:12.395Z,101087.69
2022-12-11T07:49:38.832Z,101051.94
2022-12-11T07:52:05.298Z,101090.38
2022-12-11T07:54:31.667Z,101073.66
2022-12-11T07:56:58.086Z,101109.00
2022-12-11T07:59:24.542Z,101107.78
2022-12-11T08:01:51.025Z,101103.50
2022-12-11T08:04:17.431Z,101117.91
2022-12-11T08:06:43.899Z,101106.41
2022-12-11T08:09:17.430Z,101098.00
2022-12-11T08:11:49.342Z,101135.22
2022-12-11T08:14:15.722Z,101086.88
2022-12-11T08:16:44.135Z,101138.81
2022-12-11T08:19:14.934Z,101112.38
2022-12-11T08:21:41.479Z,101083.78
2022-12-11T08:24:08.717Z,101104.69
2022-12-11T08:26:35.147Z,101121.28
2022-12-11T08:29:02.519Z,101127.19
2022-12-11T08:31:29.740Z,101145.75
2022-12-11T08:33:56.526Z,101144.53
2022-12-11T08:36:23.898Z,101145.56
2022-12-11T08:38:51.338Z,101151.06
2022-12-11T08:41:24.108Z,101148.00
2022-12-11T08:43:54.784Z,101130.91
2022-12-11T08:46:25.896Z,101136.75
2022-12-11T08:48:52.661Z,101139.50
2022-12-11T08:51:20.935Z,101106.78
2022-12-11T08:53:47.398Z,101122.56
2022-12-11T08:56:15.832Z,101107.28
2022-12-11T08:58:43.249Z,101136.53
2022-12-11T09:01:21.448Z,101115.31
2022-12-11T09:03:48.803Z,101084.88
2022-12-11T09:06:18.095Z,101121.72
2022-12-11T09:08:51.724Z,101113.97
2022-12-11T09:11:21.733Z,101068.69
2022-12-11T09:13:48.308Z,101082.44
2022-12-11T09:16:16.963Z,101119.97
2022-12-11T09:18:45.400Z,101093.50
2022-12-11T09:21:14.767Z,101098.66
2022-12-11T09:23:41.408Z,101077.97
2022-12-11T09:26:12.315Z,101049.13
2022-12-11T09:28:44.397Z,101045.44
2022-12-11T09:31:15.530Z,101084.78
2022-12-11T09:33:42.078Z,101067.59
2022-12-11T09:36:08.932Z,101075.88
2022-12-11T09:38:36.495Z,101050.28
2022-12-11T09:41:20.804Z,101078.44
2022-12-11T09:44:15.246Z,101088.25
2022-12-11T09:46:42.649Z,101074.47
2022-12-11T09:49:27.587Z,101069.97
2022-12-11T09:52:21.431Z,101111.84
2022-12-11T09:54:54.905Z,101072.63
2022-12-11T09:57:35.252Z,101069.84
2022-12-11T10:00:10.935Z,101094.09
2022-12-11T10:02:59.210Z,101114.59
2022-12-11T10:06:20.990Z,101093.81
2022-12-11T10:08:57.301Z,101102.53
2022-12-11T10:12:02.971Z,101090.75
2022-12-11T10:14:43.786Z,101071.16
2022-12-11T10:17:13.471Z,101085.09
2022-12-11T10:19:41.373Z,101087.47
2022-12-11T10:22:18.013Z,101094.94
2022-12-11T10:27:40.292Z,101107.94
2022-12-11T10:30:12.925Z,101104.75
2022-12-11T10:33:08.562Z,101099.63
2022-12-11T10:35:59.050Z,101101.28
2022-12-11T10:38:29.574Z,101094.22
2022-12-11T10:40:59.323Z,101106.00
2022-12-11T10:43:42.425Z,101099.13
2022-12-11T10:46:21.078Z,101059.94
2022-12-11T10:48:55.955Z,101062.69
2022-12-11T10:51:25.299Z,101075.78
2022-12-11T10:53:53.699Z,101090.19
2022-12-11T10:56:31.696Z,101084.69
2022-12-11T10:58:59.048Z,101066.75
2022-12-11T11:01:27.917Z,101057.06
2022-12-11T11:04:06.687Z,101061.44
2022-12-11T11:06:33.623Z,101088.03
2022-12-11T11:09:01.309Z,101083.63
2022-12-11T11:11:36.545Z,101085.91
2022-12-11T11:14:07.920Z,101081.00
2022-12-11T11:16:38.303Z,101079.75
2022-12-11T11:19:05.086Z,101051.19
2022-12-11T11:21:32.892Z,101068.09
2022-12-11T11:23:59.427Z,101009.88
2022-12-11T11:26:43.501Z,101070.44
2022-12-11T11:29:32.353Z,101054.56
2022-12-11T11:32:14.848Z,101019.38
2022-12-11T11:34:41.515Z,101058.53
2022-12-11T11:37:24.226Z,101064.97
2022-12-11T11:39:53.313Z,101055.88
2022-12-11T11:42:27.639Z,101049.63
2022-12-11T11:45:00.016Z,101064.66
2022-12-11T11:47:30.511Z,101011.94
2022-12-11T11:50:06.729Z,100991.53
2022-12-11T11:52:45.328Z,101007.34
2022-12-11T11:55:35.432Z,101034.44
2022-12-11T11:58:14.690Z,101012.19
2022-12-11T12:00:41.172Z,100970.47
2022-12-11T12:03:14.415Z,101042.91
2022-12-11T12:05:52.099Z,101051.38
2022-12-11T12:08:29.098Z,101040.22
2022-12-11T12:11:05.526Z,101029.44
2022-12-11T12:13:49.975Z,101044.19
2022-12-11T12:19:42.496Z,101043.31
2022-12-11T12:22:28.042Z,101024.03
2022-12-11T12:25:31.978Z,101042.34
2022-12-11T12:28:17.463Z,101041.91
2022-12-11T12:31:00.519Z,101040.28
2022-12-11T12:33:29.789Z,101042.28
2022-12-11T12:36:07.251Z,100960.06
2022-12-11T12:38:47.423Z,101044.00
2022-12-11T12:41:51.415Z,101034.75
2022-12-11T12:44:20.289Z,101041.94
2022-12-11T12:46:59.679Z,101042.19
2022-12-11T12:49:49.138Z,101037.78
2022-12-11T12:52:18.875Z,101041.63
2022-12-11T12:55:07.733Z,101012.00
2022-12-11T12:57:34.177Z,101028.72
2022-12-11T13:00:00.615Z,101021.94
2022-12-11T13:02:27.629Z,100965.09
2022-12-11T13:05:05.269Z,101005.72
2022-12-11T13:07:32.660Z,101012.16
2022-12-11T13:10:22.885Z,101014.97
2022-12-11T13:12:49.369Z,101013.13
2022-12-11T13:15:34.752Z,101037.00
2022-12-11T13:18:07.082Z,101013.25
2022-12-11T13:20:34.627Z,100956.31
2022-12-11T13:23:07.060Z,101022.94
2022-12-11T13:25:52.960Z,100992.66
2022-12-11T13:28:30.166Z,100961.38
2022-12-11T13:31:03.266Z,101028.53
2022-12-11T13:33:30.551Z,100965.63
2022-12-11T13:36:31.112Z,101043.66
2022-12-11T13:39:18.788Z,101013.44
2022-12-11T13:41:53.188Z,101028.38
2022-12-11T13:44:25.617Z,101039.88
2022-12-11T13:46:53.683Z,100959.34
2022-12-11T13:49:26.790Z,100970.69
2022-12-11T13:51:58.837Z,100974.22
2022-12-11T13:54:28.229Z,101035.75
2022-12-11T13:56:57.623Z,100990.22
2022-12-11T13:59:36.055Z,100995.56
2022-12-11T14:02:22.879Z,101044.47
2022-12-11T14:04:52.376Z,100980.34
2022-12-11T14:07:24.551Z,100998.63
2022-12-11T14:09:51.152Z,101040.75
2022-12-11T14:12:20.097Z,100981.63
2022-12-11T14:14:55.163Z,101030.44
2022-12-11T14:17:28.433Z,100980.03
2022-12-11T14:19:57.203Z,101048.66
2022-12-11T14:22:26.367Z,101049.16
2022-12-11T14:24:55.433Z,101046.94
2022-12-11T14:27:22.061Z,101021.44
2022-12-11T14:29:48.891Z,101039.06
2022-12-11T14:32:33.008Z,101023.03
2022-12-11T14:35:02.168Z,101045.88
2022-12-11T14:37:28.684Z,100977.97
2022-12-11T14:40:07.100Z,101043.94
2022-12-11T14:43:00.013Z,101052.59
2022-12-11T14:45:39.592Z,101052.84
2022-12-11T14:48:28.295Z,101001.56
2022-12-11T14:50:57.820Z,101036.00
2022-12-11T14:53:38.388Z,101043.06
2022-12-11T14:56:13.675Z,101038.97
2022-12-11T14:58:43.705Z,100995.31
2022-12-11T15:01:24.491Z,101027.53
2022-12-11T15:04:19.998Z,100969.13
2022-12-11T15:06:48.334Z,101050.19
2022-12-11T15:09:27.091Z,101055.97
2022-12-11T15:11:55.983Z,101056.19
2022-12-11T15:14:24.116Z,100988.97
2022-12-11T15:16:51.730Z,101040.53
2022-12-11T15:19:24.326Z,101001.34
2022-12-11T15:21:51.200Z,100997.38
2022-12-11T15:24:38.387Z,101064.41
2022-12-11T15:27:05.224Z,101025.00
2022-12-11T15:29:37.664Z,101022.16
2022-12-11T15:32:14.115Z,101062.16
2022-12-11T15:34:44.659Z,101066.56
2022-12-11T15:37:28.262Z,101008.84
2022-12-11T15:39:56.292Z,101011.00
2022-12-11T15:42:35.337Z,101020.63
2022-12-11T15:45:02.867Z,101071.47
2022-12-11T15:47:30.976Z,101038.63
2022-12-11T15:50:00.364Z,101077.22
2022-12-11T15:52:26.828Z,101034.25
2022-12-11T15:54:53.267Z,101012.03
2022-12-11T15:57:21.534Z,101082.53
2022-12-11T15:59:52.439Z,101089.94
2022-12-11T16:02:18.925Z,101027.69
2022-12-11T16:04:45.398Z,101017.84
2022-12-11T16:07:20.217Z,101035.06
2022-12-11T16:09:47.166Z,101081.72
2022-12-11T16:12:14.287Z,101007.34
2022-12-11T16:14:44.950Z,101073.53
2022-12-11T16:17:13.276Z,101078.84
2022-12-11T16:19:40.699Z,100995.25
2022-12-11T16:22:08.820Z,101025.16
2022-12-11T16:24:35.880Z,101086.31
2022-12-11T16:27:02.755Z,101079.25
2022-12-11T16:29:29.191Z,101018.56
2022-12-11T16:31:55.604Z,101012.94
2022-12-11T16:34:26.698Z,101029.75
2022-12-11T16:36:54.815Z,101038.66
2022-12-11T16:39:21.222Z,101083.56
2022-12-11T16:41:47.815Z,101066.78
2022-12-11T16:44:14.278Z,101023.59
2022-12-11T16:46:40.854Z,101019.69
2022-12-11T16:49:07.313Z,101062.19
2022-12-11T16:51:33.759Z,101017.03
2022-12-11T16:54:00.200Z,101008.06
2022-12-11T16:56:26.871Z,101068.94
2022-12-11T16:58:53.251Z,101024.00
2022-12-11T17:01:19.770Z,101059.63
2022-12-11T17:03:46.560Z,101034.53
2022-12-11T17:06:15.011Z,101022.34
2022-12-11T17:08:42.593Z,101066.44
2022-12-11T17:11:14.725Z,101070.75
2022-12-11T17:13:41.594Z,101021.03
2022-12-11T17:16:12.700Z,101034.94
2022-12-11T17:18:39.954Z,101076.41
2022-12-11T17:21:08.109Z,101065.84
2022-12-11T17:23:34.897Z,101026.25
2022-12-11T17:26:13.540Z,101014.88
2022-12-11T17:28:40.184Z,101050.72
2022-12-11T17:31:08.374Z,101075.16
2022-12-11T17:33:35.380Z,101051.22
2022-12-11T17:36:03.269Z,101002.31
2022-12-11T17:38:29.881Z,101065.47
2022-12-11T17:40:56.503Z,101046.94
2022-12-11T17:46:48.681Z,101035.25
2022-12-11T17:49:15.074Z,101077.03
2022-12-11T17:52:18.756Z,101072.31
2022-12-11T17:55:03.826Z,101062.91
2022-12-11T17:57:44.530Z,101022.69
2022-12-11T18:00:11.533Z,101054.41
2022-12-11T18:02:52.631Z,101018.16
2022-12-11T18:05:19.147Z,101063.72
2022-12-11T18:07:45.606Z,101024.00
2022-12-11T18:10:12.039Z,101066.81
2022-12-11T19:36:13.173Z,101066.22
2022-12-11T19:38:41.271Z,101063.44
2022-12-11T19:41:10.468Z,101079.34
2022-12-11T19:43:36.993Z,101053.28
2022-12-11T19:46:06.321Z,101097.78
2022-12-11T19:48:32.963Z,101059.56
2022-12-11T19:51:12.527Z,101076.56
2022-12-11T19:53:39.944Z,101014.72
2022-12-11T19:56:06.955Z,101087.22
2022-12-11T19:58:33.548Z,101070.75
2022-12-11T20:01:02.759Z,101053.13
2022-12-11T20:03:29.873Z,101056.94
2022-12-11T20:06:05.194Z,101076.16
2022-12-11T20:08:47.511Z,101042.00
2022-12-11T20:11:18.455Z,101046.06
2022-12-11T20:13:46.666Z,101072.09
2022-12-11T20:16:14.187Z,101046.59
2022-12-11T20:18:41.581Z,101057.75
2022-12-11T20:21:10.297Z,101047.72
2022-12-11T20:23:37.032Z,101098.13
2022-12-11T20:26:15.058Z,101070.84
2022-12-11T20:28:43.788Z,101101.06
2022-12-11T20:31:42.376Z,101101.69
2022-12-11T20:34:28.966Z,101096.97
2022-12-11T20:36:56.251Z,101097.16
2022-12-11T20:39:22.803Z,101098.69
2022-12-11T20:41:49.864Z,101064.19
2022-12-11T20:44:16.879Z,101092.06
2022-12-11T20:46:43.424Z,101074.13
2022-12-11T20:49:16.555Z,101097.88
2022-12-11T20:51:45.349Z,101097.28
2022-12-11T20:54:12.019Z,101060.00
2022-12-11T20:56:38.716Z,101110.78
2022-12-11T20:59:05.460Z,101044.75
2022-12-11T21:01:34.897Z,101108.03
2022-12-11T21:04:01.535Z,101076.06
2022-12-11T21:06:36.527Z,101108.22
2022-12-11T21:09:07.574Z,101076.06
2022-12-11T21:11:34.500Z,101111.28
2022-12-11T21:14:01.198Z,101109.22
2022-12-11T21:16:28.391Z,101053.81
2022-12-11T21:18:58.900Z,101060.25
2022-12-11T21:21:26.187Z,101125.72
2022-12-11T21:23:52.918Z,101104.63
2022-12-11T21:26:20.142Z,101089.47
2022-12-11T21:28:59.524Z,101108.50
2022-12-11T21:31:29.758Z,101112.22
2022-12-11T21:33:58.417Z,101114.13
2022-12-11T21:36:25.126Z,101087.19
2022-12-11T21:38:51.797Z,101085.06
2022-12-11T21:41:22.304Z,101065.91
2022-12-11T21:46:38.460Z,101070.50
2022-12-11T21:49:05.232Z,101085.88
2022-12-11T21:51:45.327Z,101074.38
2022-12-11T21:54:16.064Z,101088.66
2022-12-11T21:56:42.869Z,101119.66
2022-12-11T21:59:09.806Z,101086.47
2022-12-11T22:01:41.049Z,101045.31
2022-12-11T22:04:09.468Z,101084.63
2022-12-11T22:06:36.269Z,101073.91
2022-12-11T22:09:05.966Z,101058.19
2022-12-11T22:11:34.184Z,101107.06
2022-12-11T22:14:01.385Z,101051.13
2022-12-11T22:16:28.617Z,101068.34
2022-12-11T22:18:55.176Z,101131.25
2022-12-11T22:21:24.903Z,101064.72
2022-12-11T22:23:51.471Z,101097.00
2022-12-11T22:26:28.768Z,101120.34
2022-12-11T22:28:56.284Z,101090.47
2022-12-11T22:31:26.700Z,101081.56
2022-12-11T22:33:54.967Z,101134.22
2022-12-11T22:36:23.392Z,101076.97
2022-12-11T22:38:49.863Z,101095.22
2022-12-11T22:41:22.351Z,101122.97
2022-12-11T22:43:49.294Z,101119.00
2022-12-11T22:46:17.036Z,101119.31
2022-12-11T22:48:43.545Z,101113.22
2022-12-11T22:51:12.497Z,101066.44
2022-12-11T22:53:44.967Z,101113.47
2022-12-11T22:56:12.799Z,101099.44
2022-12-11T22:58:42.013Z,101119.72
2022-12-11T23:01:14.425Z,101074.50
2022-12-11T23:03:41.594Z,101130.16
2022-12-11T23:06:13.545Z,101074.38
2022-12-11T23:08:40.658Z,101136.97
2022-12-11T23:11:18.798Z,101096.34
2022-12-11T23:13:49.940Z,101097.25
2022-12-11T23:16:17.054Z,101100.44
2022-12-11T23:18:48.884Z,101087.69
2022-12-11T23:21:19.971Z,101107.78
2022-12-11T23:23:46.543Z,101121.41
2022-12-11T23:26:14.551Z,101101.00
2022-12-11T23:28:46.976Z,101131.16
2022-12-11T23:31:16.888Z,101097.00
2022-12-11T23:33:43.777Z,101054.38
2022-12-11T23:36:10.816Z,101083.75
2022-12-11T23:38:38.257Z,101089.22
2022-12-11T23:41:12.967Z,101130.47
2022-12-11T23:47:01.866Z,101074.66
2022-12-11T23:49:28.471Z,101080.00
2022-12-11T23:52:00.774Z,101116.44
2022-12-11T23:54:27.258Z,101085.19
2022-12-11T23:56:53.670Z,101084.38
2022-12-11T23:59:20.127Z,101109.97
